createdAt,value
2019-03-03T00:01:53.034Z,3.50
2019-03-03T00:04:24.974Z,3.17
2019-03-03T00:06:54.679Z,3.27
2019-03-03T00:09:24.086Z,3.07
2019-03-03T00:11:57.776Z,2.90
2019-03-03T00:14:28.502Z,2.97
2019-03-03T00:16:58.949Z,3.30
2019-03-03T00:19:30.444Z,2.63
2019-03-03T00:21:59.936Z,2.67
2019-03-03T00:24:29.279Z,3.17
2019-03-03T00:26:58.789Z,2.60
2019-03-03T00:29:29.143Z,3.00
2019-03-03T00:31:59.504Z,3.40
2019-03-03T00:34:32.213Z,2.60
2019-03-03T00:37:19.133Z,2.70
2019-03-03T00:40:21.041Z,2.73
2019-03-03T00:43:15.146Z,2.80
2019-03-03T00:46:21.369Z,2.70
2019-03-03T00:49:18.357Z,2.87
2019-03-03T00:52:02.229Z,3.13
2019-03-03T00:54:44.679Z,2.40
2019-03-03T00:57:28.587Z,2.70
2019-03-03T01:00:20.177Z,3.00
2019-03-03T01:02:57.091Z,2.90
2019-03-03T01:05:37.009Z,2.80
2019-03-03T01:08:25.320Z,3.10
2019-03-03T01:11:12.297Z,2.70
2019-03-03T01:14:12.045Z,2.80
2019-03-03T01:16:59.798Z,3.27
2019-03-03T01:20:06.031Z,2.70
2019-03-03T01:22:52.879Z,3.10
2019-03-03T01:25:31.140Z,3.10
2019-03-03T01:28:01.518Z,2.53
2019-03-03T01:30:36.682Z,3.07
2019-03-03T01:33:08.287Z,2.77
2019-03-03T01:35:37.746Z,3.17
2019-03-03T01:38:09.002Z,2.93
2019-03-03T01:40:38.432Z,2.93
2019-03-03T01:43:08.212Z,3.07
2019-03-03T01:45:38.672Z,2.93
2019-03-03T01:48:10.338Z,3.03
2019-03-03T01:50:40.652Z,3.00
2019-03-03T01:53:10.903Z,3.27
2019-03-03T01:55:41.238Z,3.20
2019-03-03T01:58:10.731Z,2.47
2019-03-03T02:00:40.232Z,3.50
2019-03-03T02:03:09.771Z,3.23
2019-03-03T02:05:39.228Z,3.17
2019-03-03T02:08:09.674Z,3.33
2019-03-03T02:10:38.984Z,3.40
2019-03-03T02:13:08.204Z,3.43
2019-03-03T02:15:37.736Z,3.37
2019-03-03T02:18:07.480Z,3.20
2019-03-03T02:20:37.084Z,3.07
2019-03-03T02:23:06.621Z,3.47
2019-03-03T02:25:37.380Z,3.70
2019-03-03T02:28:09.494Z,2.97
2019-03-03T02:30:41.209Z,3.13
2019-03-03T02:33:10.932Z,3.90
2019-03-03T02:35:42.394Z,3.77
2019-03-03T02:38:12.829Z,3.60
2019-03-03T02:40:43.417Z,3.30
2019-03-03T02:43:13.017Z,3.73
2019-03-03T02:45:42.469Z,3.80
2019-03-03T02:48:11.949Z,3.57
2019-03-03T02:50:42.297Z,4.23
2019-03-03T02:53:33.351Z,3.60
2019-03-03T02:56:03.794Z,4.00
2019-03-03T02:58:37.372Z,3.90
2019-03-03T03:01:27.033Z,3.73
2019-03-03T03:03:56.624Z,4.13
2019-03-03T03:06:49.149Z,4.10
2019-03-03T03:09:27.362Z,4.00
2019-03-03T03:12:09.175Z,4.13
2019-03-03T03:15:21.177Z,3.87
2019-03-03T03:18:22.812Z,4.23
2019-03-03T03:21:16.630Z,3.97
2019-03-03T03:23:54.528Z,3.83
2019-03-03T03:26:53.517Z,4.50
2019-03-03T03:29:48.174Z,4.03
2019-03-03T03:32:52.259Z,4.23
2019-03-03T03:35:33.355Z,4.27
2019-03-03T03:38:27.646Z,4.50
2019-03-03T03:41:15.047Z,4.70
2019-03-03T03:44:02.787Z,4.37
2019-03-03T03:46:50.844Z,4.10
2019-03-03T03:49:27.271Z,4.50
2019-03-03T03:52:15.839Z,4.83
2019-03-03T03:55:01.948Z,4.40
2019-03-03T03:57:41.480Z,4.73
2019-03-03T04:00:26.443Z,4.72
2019-03-03T04:03:08.025Z,5.00
2019-03-03T04:05:52.501Z,4.53
2019-03-03T04:08:36.896Z,4.97
2019-03-03T04:11:26.676Z,4.90
2019-03-03T04:14:05.745Z,4.97
2019-03-03T04:16:40.147Z,5.20
2019-03-03T04:19:34.588Z,5.30
2019-03-03T04:22:17.661Z,5.30
2019-03-03T04:24:52.118Z,5.40
2019-03-03T04:27:43.224Z,5.20
2019-03-03T04:30:32.534Z,4.90
2019-03-03T04:33:20.700Z,6.17
2019-03-03T04:36:09.232Z,5.13
2019-03-03T04:38:48.091Z,5.60
2019-03-03T04:41:26.878Z,5.30
2019-03-03T04:44:15.383Z,5.63
2019-03-03T04:46:53.126Z,6.17
2019-03-03T04:49:42.707Z,5.47
2019-03-03T04:52:29.536Z,4.97
2019-03-03T04:55:25.758Z,5.53
2019-03-03T04:58:12.859Z,6.10
2019-03-03T05:01:14.135Z,5.27
2019-03-03T05:04:02.401Z,6.03
2019-03-03T05:06:45.905Z,5.80
2019-03-03T05:09:28.663Z,5.85
2019-03-03T05:12:39.375Z,5.93
2019-03-03T05:15:30.561Z,5.33
2019-03-03T05:18:08.876Z,5.97
2019-03-03T05:20:49.262Z,6.30
2019-03-03T05:23:18.569Z,6.30
2019-03-03T05:25:53.903Z,6.13
2019-03-03T05:28:23.327Z,6.30
2019-03-03T05:30:52.805Z,6.37
2019-03-03T05:33:22.301Z,6.80
2019-03-03T05:35:52.705Z,6.47
2019-03-03T05:38:24.220Z,6.27
2019-03-03T05:41:03.924Z,6.43
2019-03-03T05:44:07.818Z,6.07
2019-03-03T05:46:39.009Z,7.27
2019-03-03T05:49:08.528Z,5.87
2019-03-03T05:51:38.058Z,6.83
2019-03-03T05:54:07.524Z,6.50
2019-03-03T05:56:37.935Z,6.70
2019-03-03T05:59:07.361Z,6.60
2019-03-03T06:01:36.858Z,5.90
2019-03-03T06:04:06.369Z,6.40
2019-03-03T06:06:35.918Z,6.63
2019-03-03T06:09:07.247Z,6.67
2019-03-03T06:11:36.572Z,6.00
2019-03-03T06:14:06.451Z,6.35
2019-03-03T06:16:36.776Z,6.10
2019-03-03T06:19:06.292Z,6.87
2019-03-03T06:21:44.794Z,6.80
2019-03-03T06:24:14.433Z,6.45
2019-03-03T06:26:45.117Z,6.50
2019-03-03T06:29:15.437Z,6.60
2019-03-03T06:31:45.043Z,7.37
2019-03-03T06:34:16.414Z,6.93
2019-03-03T06:36:46.760Z,7.27
2019-03-03T06:39:17.105Z,6.80
2019-03-03T06:41:46.705Z,7.43
2019-03-03T06:44:17.691Z,6.37
2019-03-03T06:46:48.958Z,6.43
2019-03-03T06:49:18.498Z,7.27
2019-03-03T06:51:48.047Z,6.37
2019-03-03T06:54:18.739Z,6.30
2019-03-03T06:56:48.086Z,6.97
2019-03-03T06:59:19.356Z,7.13
2019-03-03T07:01:48.725Z,6.57
2019-03-03T07:04:18.295Z,6.90
2019-03-03T07:06:48.944Z,7.30
2019-03-03T07:09:38.963Z,6.80
2019-03-03T07:12:09.909Z,6.27
2019-03-03T07:14:39.379Z,7.13
2019-03-03T07:17:09.767Z,7.07
2019-03-03T07:19:39.308Z,7.33
2019-03-03T07:22:09.785Z,8.63
2019-03-03T07:24:39.532Z,8.37
2019-03-03T07:27:10.957Z,9.13
2019-03-03T07:29:41.209Z,7.50
2019-03-03T07:32:12.835Z,7.97
2019-03-03T07:34:43.222Z,8.07
2019-03-03T07:37:12.730Z,7.80
2019-03-03T07:39:42.212Z,8.20
2019-03-03T07:42:12.738Z,7.27
2019-03-03T07:44:41.897Z,8.23
2019-03-03T07:47:13.077Z,8.00
2019-03-03T07:49:42.572Z,8.53
2019-03-03T07:52:12.054Z,8.13
2019-03-03T07:54:42.603Z,8.43
2019-03-03T07:57:14.240Z,8.07
2019-03-03T07:59:43.580Z,7.67
2019-03-03T08:02:14.298Z,8.20
2019-03-03T08:04:43.799Z,8.00
2019-03-03T08:07:15.696Z,7.43
2019-03-03T08:09:46.032Z,7.53
2019-03-03T08:12:15.660Z,7.42
2019-03-03T08:14:45.098Z,8.43
2019-03-03T08:17:14.942Z,7.67
2019-03-03T08:19:44.826Z,7.30
2019-03-03T08:22:14.452Z,7.83
2019-03-03T08:24:44.372Z,7.03
2019-03-03T08:27:15.902Z,7.67
2019-03-03T08:29:52.311Z,7.10
2019-03-03T08:32:38.708Z,7.60
2019-03-03T08:35:10.025Z,7.53
2019-03-03T08:37:40.209Z,7.60
2019-03-03T08:40:13.025Z,7.10
2019-03-03T08:42:49.278Z,6.93
2019-03-03T08:45:40.972Z,7.30
2019-03-03T08:48:30.562Z,6.83
2019-03-03T08:51:22.059Z,7.60
2019-03-03T08:53:58.834Z,6.77
2019-03-03T08:56:48.911Z,6.83
2019-03-03T08:59:43.535Z,7.77
2019-03-03T09:02:28.120Z,7.87
2019-03-03T09:05:20.431Z,9.13
2019-03-03T09:08:11.297Z,7.33
2019-03-03T09:11:10.007Z,6.80
2019-03-03T09:13:59.697Z,7.10
2019-03-03T09:16:43.435Z,6.77
2019-03-03T09:19:35.859Z,6.50
2019-03-03T09:22:25.385Z,5.97
2019-03-03T09:25:34.419Z,6.40
2019-03-03T09:28:31.188Z,6.20
2019-03-03T09:31:32.754Z,5.73
2019-03-03T09:34:12.269Z,6.63
2019-03-03T09:37:02.863Z,6.27
2019-03-03T09:40:09.855Z,7.37
2019-03-03T09:42:57.880Z,6.43
2019-03-03T09:45:39.125Z,6.43
2019-03-03T09:48:27.151Z,6.30
2019-03-03T09:51:17.905Z,6.47
2019-03-03T09:54:11.474Z,6.80
2019-03-03T09:57:00.668Z,6.67
2019-03-03T09:59:40.088Z,6.37
2019-03-03T10:02:17.890Z,6.47
2019-03-03T10:04:53.964Z,6.07
2019-03-03T10:07:46.334Z,5.57
2019-03-03T10:10:36.114Z,6.23
2019-03-03T10:13:30.612Z,6.53
2019-03-03T10:16:08.028Z,6.47
2019-03-03T10:18:54.430Z,6.12
2019-03-03T10:21:56.432Z,6.40
2019-03-03T10:24:58.235Z,5.60
2019-03-03T10:27:49.858Z,6.03
2019-03-03T10:30:33.798Z,6.00
2019-03-03T10:33:28.206Z,6.00
2019-03-03T10:36:18.158Z,5.77
2019-03-03T10:39:14.282Z,6.47
2019-03-03T10:42:02.398Z,5.60
2019-03-03T10:44:50.877Z,5.20
2019-03-03T10:47:39.182Z,4.87
2019-03-03T10:50:29.035Z,4.97
2019-03-03T10:53:07.893Z,4.73
2019-03-03T10:55:55.602Z,5.30
2019-03-03T10:58:47.039Z,5.40
2019-03-03T11:01:32.709Z,4.67
2019-03-03T11:04:20.996Z,5.70
2019-03-03T11:07:05.533Z,5.17
2019-03-03T11:09:54.715Z,5.83
2019-03-03T11:12:37.925Z,5.97
2019-03-03T11:15:28.159Z,5.60
2019-03-03T11:18:30.861Z,4.93
2019-03-03T11:21:26.412Z,5.83
2019-03-03T11:24:14.316Z,6.47
2019-03-03T11:27:03.387Z,5.80
2019-03-03T11:30:01.641Z,5.53
2019-03-03T11:32:38.482Z,5.33
2019-03-03T11:35:30.053Z,5.93
2019-03-03T11:38:17.157Z,5.53
2019-03-03T11:41:22.774Z,5.60
2019-03-03T11:43:57.813Z,6.03
2019-03-03T11:46:44.821Z,7.27
2019-03-03T11:49:22.221Z,6.13
2019-03-03T11:52:17.792Z,6.87
2019-03-03T11:54:56.354Z,6.93
2019-03-03T11:57:34.301Z,7.50
2019-03-03T12:00:21.559Z,7.17
2019-03-03T12:03:13.969Z,6.97
2019-03-03T12:05:56.765Z,6.67
2019-03-03T12:08:34.689Z,7.50
2019-03-03T12:11:26.555Z,7.40
2019-03-03T12:14:22.264Z,8.30
2019-03-03T12:16:59.961Z,7.90
2019-03-03T12:19:48.867Z,7.80
2019-03-03T12:22:37.213Z,8.10
2019-03-03T12:25:17.308Z,9.00
2019-03-03T12:28:24.845Z,9.03
2019-03-03T12:31:16.135Z,8.97
2019-03-03T12:34:30.395Z,9.20
2019-03-03T12:37:29.518Z,8.83
2019-03-03T12:40:30.234Z,8.70
2019-03-03T12:43:23.744Z,7.83
2019-03-03T12:46:10.478Z,8.10
2019-03-03T12:49:00.362Z,8.37
2019-03-03T12:52:02.612Z,7.60
2019-03-03T12:55:01.459Z,8.23
2019-03-03T12:57:42.456Z,8.23
2019-03-03T13:00:19.573Z,7.33
2019-03-03T13:03:06.668Z,7.83
2019-03-03T13:05:50.598Z,8.13
2019-03-03T13:08:29.689Z,8.67
2019-03-03T13:11:17.242Z,7.90
2019-03-03T13:14:04.179Z,7.30
2019-03-03T13:16:42.418Z,8.03
2019-03-03T13:19:19.597Z,7.73
2019-03-03T13:22:03.670Z,7.00
2019-03-03T13:24:53.859Z,6.77
2019-03-03T13:27:38.694Z,7.60
2019-03-03T13:30:33.091Z,7.77
2019-03-03T13:33:41.062Z,7.93
2019-03-03T13:36:38.653Z,7.20
2019-03-03T13:39:38.747Z,7.20
2019-03-03T13:42:26.207Z,7.07
2019-03-03T13:44:55.679Z,8.00
2019-03-03T13:47:26.012Z,7.73
2019-03-03T13:49:55.645Z,7.10
2019-03-03T13:52:26.189Z,8.50
2019-03-03T13:54:55.905Z,7.47
2019-03-03T13:57:25.312Z,6.50
2019-03-03T13:59:54.689Z,6.60
2019-03-03T14:02:24.255Z,6.23
2019-03-03T14:04:54.745Z,6.33
2019-03-03T14:07:25.363Z,5.90
2019-03-03T14:09:54.993Z,6.07
2019-03-03T14:12:26.154Z,6.20
2019-03-03T14:14:56.725Z,5.60
2019-03-03T14:17:26.200Z,5.57
2019-03-03T14:19:58.320Z,5.33
2019-03-03T14:22:28.819Z,5.17
2019-03-03T14:24:58.371Z,5.73
2019-03-03T14:27:28.758Z,6.07
2019-03-03T14:29:58.160Z,5.33
2019-03-03T14:32:27.760Z,5.50
2019-03-03T14:34:57.340Z,5.30
2019-03-03T14:37:28.522Z,4.93
2019-03-03T14:39:57.916Z,4.97
2019-03-03T14:42:27.360Z,5.30
2019-03-03T14:44:58.982Z,6.80
2019-03-03T14:47:30.107Z,6.00
2019-03-03T14:49:59.618Z,5.93
2019-03-03T14:52:29.193Z,5.10
2019-03-03T14:54:58.558Z,5.20
2019-03-03T14:57:28.096Z,4.53
2019-03-03T14:59:57.619Z,4.80
2019-03-03T15:02:27.114Z,4.97
2019-03-03T15:04:56.622Z,5.97
2019-03-03T15:07:26.190Z,6.83
2019-03-03T15:09:55.704Z,7.20
2019-03-03T15:12:25.147Z,6.83
2019-03-03T15:14:54.688Z,7.30
2019-03-03T15:17:24.122Z,6.90
2019-03-03T15:19:53.794Z,6.40
2019-03-03T15:22:24.489Z,5.53
2019-03-03T15:24:53.949Z,5.67
2019-03-03T15:27:23.459Z,6.73
2019-03-03T15:29:52.943Z,4.70
2019-03-03T15:32:22.385Z,4.97
2019-03-03T15:34:51.990Z,4.63
2019-03-03T15:37:21.479Z,4.60
2019-03-03T15:39:50.924Z,4.80
2019-03-03T15:42:20.401Z,4.70
2019-03-03T15:44:50.059Z,4.40
2019-03-03T15:47:19.505Z,4.53
2019-03-03T15:49:48.953Z,4.23
2019-03-03T15:52:18.511Z,4.53
2019-03-03T15:54:47.973Z,4.60
2019-03-03T15:57:17.545Z,4.30
2019-03-03T15:59:49.443Z,4.90
2019-03-03T16:02:19.813Z,4.67
2019-03-03T16:04:49.339Z,4.60
2019-03-03T16:07:20.642Z,4.30
2019-03-03T16:09:51.309Z,5.00
2019-03-03T16:12:22.694Z,5.00
2019-03-03T16:14:52.222Z,4.63
2019-03-03T16:17:23.885Z,4.77
2019-03-03T16:19:55.327Z,4.23
2019-03-03T16:22:26.859Z,5.00
2019-03-03T16:24:57.472Z,4.13
2019-03-03T16:27:28.960Z,5.13
2019-03-03T16:29:59.893Z,4.90
2019-03-03T16:32:30.240Z,4.10
2019-03-03T16:35:01.804Z,4.33
2019-03-03T16:37:36.998Z,4.90
2019-03-03T16:40:07.863Z,4.20
2019-03-03T16:42:38.562Z,4.70
2019-03-03T16:45:09.832Z,4.83
2019-03-03T16:47:42.390Z,5.47
2019-03-03T16:50:14.454Z,4.73
2019-03-03T16:52:44.710Z,5.73
2019-03-03T16:55:14.490Z,4.37
2019-03-03T16:57:44.340Z,4.67
2019-03-03T17:00:16.121Z,5.27
2019-03-03T17:02:46.390Z,6.00
2019-03-03T17:05:17.600Z,5.10
2019-03-03T17:07:47.023Z,4.23
2019-03-03T17:10:16.641Z,4.60
2019-03-03T17:12:46.763Z,4.53
2019-03-03T17:15:19.550Z,4.30
2019-03-03T17:17:56.587Z,4.57
2019-03-03T17:20:26.944Z,4.57
2019-03-03T17:23:04.151Z,5.33
2019-03-03T17:25:43.502Z,6.17
2019-03-03T17:28:12.755Z,5.47
2019-03-03T17:30:42.137Z,4.70
2019-03-03T17:33:25.555Z,4.60
2019-03-03T17:36:35.806Z,4.30
2019-03-03T17:39:13.299Z,4.37
2019-03-03T17:41:42.804Z,4.13
2019-03-03T17:44:14.079Z,4.17
2019-03-03T17:46:43.499Z,4.30
2019-03-03T17:49:12.973Z,3.93
2019-03-03T17:51:42.449Z,4.20
2019-03-03T17:54:12.017Z,4.30
2019-03-03T17:56:41.471Z,4.00
2019-03-03T17:59:11.191Z,4.33
2019-03-03T18:01:40.747Z,4.30
2019-03-03T18:04:11.294Z,4.53
2019-03-03T18:06:41.565Z,4.40
2019-03-03T18:09:11.179Z,5.20
2019-03-03T18:11:40.614Z,4.63
2019-03-03T18:14:10.878Z,4.50
2019-03-03T18:16:40.435Z,4.73
2019-03-03T18:19:09.981Z,5.07
2019-03-03T18:21:40.656Z,4.70
2019-03-03T18:24:12.302Z,4.40
2019-03-03T18:26:41.732Z,4.73
2019-03-03T18:29:11.333Z,4.80
2019-03-03T18:31:40.917Z,4.17
2019-03-03T18:34:11.433Z,3.97
2019-03-03T18:36:41.001Z,4.97
2019-03-03T18:39:10.566Z,4.40
2019-03-03T18:41:40.038Z,4.70
2019-03-03T18:44:09.556Z,4.87
2019-03-03T18:47:02.350Z,5.20
2019-03-03T18:49:33.914Z,4.90
2019-03-03T18:52:03.883Z,4.80
2019-03-03T18:54:35.462Z,5.90
2019-03-03T18:57:06.554Z,4.85
2019-03-03T18:59:36.056Z,5.60
2019-03-03T19:02:06.928Z,4.87
2019-03-03T19:04:37.479Z,4.27
2019-03-03T19:07:07.061Z,4.80
2019-03-03T19:09:36.470Z,5.47
2019-03-03T19:12:07.076Z,5.70
2019-03-03T19:14:38.386Z,5.40
2019-03-03T19:17:07.848Z,4.40
2019-03-03T19:19:37.386Z,4.67
2019-03-03T19:22:06.942Z,4.40
2019-03-03T19:24:38.286Z,4.17
2019-03-03T19:27:07.583Z,4.47
2019-03-03T19:29:38.956Z,3.80
2019-03-03T19:32:08.232Z,4.10
2019-03-03T19:34:37.705Z,3.43
2019-03-03T19:37:13.065Z,4.07
2019-03-03T19:39:43.035Z,4.00
2019-03-03T19:42:12.380Z,4.43
2019-03-03T19:44:41.970Z,3.90
2019-03-03T19:47:11.473Z,3.60
2019-03-03T19:49:40.912Z,4.10
2019-03-03T19:52:10.400Z,4.53
2019-03-03T19:54:39.909Z,4.03
2019-03-03T19:57:11.687Z,4.23
2019-03-03T19:59:45.019Z,4.00
2019-03-03T20:02:14.499Z,4.80
2019-03-03T20:04:53.070Z,4.60
2019-03-03T20:07:24.851Z,5.20
2019-03-03T20:09:56.208Z,5.00
2019-03-03T20:12:25.865Z,4.87
2019-03-03T20:14:55.373Z,6.00
2019-03-03T20:17:25.129Z,4.77
2019-03-03T20:19:54.675Z,5.40
2019-03-03T20:22:25.065Z,5.10
2019-03-03T20:24:54.505Z,4.57
2019-03-03T20:27:23.748Z,4.60
2019-03-03T20:29:53.136Z,4.60
2019-03-03T20:32:22.359Z,5.23
2019-03-03T20:34:56.243Z,4.37
2019-03-03T20:37:25.729Z,5.67
2019-03-03T20:39:56.001Z,5.53
2019-03-03T20:42:25.563Z,5.77
2019-03-03T20:44:55.044Z,5.43
2019-03-03T20:47:24.637Z,5.13
2019-03-03T20:49:54.120Z,4.90
2019-03-03T20:52:23.685Z,4.83
2019-03-03T20:54:53.364Z,4.33
2019-03-03T20:57:22.978Z,4.50
2019-03-03T20:59:54.536Z,4.13
2019-03-03T21:02:23.984Z,4.60
2019-03-03T21:04:53.470Z,4.23
2019-03-03T21:07:24.268Z,4.07
2019-03-03T21:09:53.774Z,4.77
2019-03-03T21:12:24.202Z,5.20
2019-03-03T21:14:53.736Z,4.47
2019-03-03T21:17:24.441Z,4.58
2019-03-03T21:19:53.840Z,4.67
2019-03-03T21:22:23.307Z,4.67
2019-03-03T21:24:53.678Z,4.73
2019-03-03T21:27:24.108Z,4.50
2019-03-03T21:29:53.475Z,4.87
2019-03-03T21:32:23.749Z,5.10
2019-03-03T21:34:54.179Z,4.20
2019-03-03T21:37:24.037Z,4.53
2019-03-03T21:39:53.571Z,4.93
2019-03-03T21:42:26.014Z,4.80
2019-03-03T21:44:57.291Z,4.80
2019-03-03T21:47:27.075Z,4.67
2019-03-03T21:49:56.603Z,4.40
2019-03-03T21:52:26.000Z,4.47
2019-03-03T21:54:55.534Z,4.47
2019-03-03T21:57:25.008Z,4.60
2019-03-03T21:59:54.532Z,3.90
2019-03-03T22:02:24.831Z,4.10
2019-03-03T22:04:54.354Z,4.47
2019-03-03T22:07:24.724Z,4.40
2019-03-03T22:09:54.291Z,4.57
2019-03-03T22:12:23.753Z,3.90
2019-03-03T22:14:54.126Z,4.00
2019-03-03T22:17:23.935Z,3.93
2019-03-03T22:19:53.411Z,3.60
2019-03-03T22:22:23.017Z,3.60
2019-03-03T22:24:55.957Z,4.10
2019-03-03T22:27:29.984Z,4.33
2019-03-03T22:30:02.611Z,3.70
2019-03-03T22:32:34.415Z,3.70
2019-03-03T22:35:04.206Z,4.00
2019-03-03T22:37:35.023Z,3.87
2019-03-03T22:40:06.967Z,3.77
2019-03-03T22:42:37.852Z,3.53
2019-03-03T22:45:10.291Z,3.63
2019-03-03T22:47:39.861Z,3.13
2019-03-03T22:50:10.110Z,3.50
2019-03-03T22:52:39.719Z,3.37
2019-03-03T22:55:11.383Z,3.33
2019-03-03T22:57:42.022Z,3.27
2019-03-03T23:00:49.371Z,3.67
2019-03-03T23:03:26.546Z,2.97
2019-03-03T23:06:22.972Z,3.07
2019-03-03T23:09:26.698Z,3.37
2019-03-03T23:12:12.747Z,2.90
2019-03-03T23:15:22.846Z,2.70
2019-03-03T23:18:37.815Z,3.33
2019-03-03T23:21:33.422Z,3.00
2019-03-03T23:24:32.320Z,3.00
2019-03-03T23:27:01.817Z,2.83
2019-03-03T23:29:32.863Z,3.00
2019-03-03T23:32:02.522Z,2.90
2019-03-03T23:34:38.280Z,2.43
2019-03-03T23:37:20.630Z,3.13
2019-03-03T23:39:56.859Z,2.80
2019-03-03T23:42:26.649Z,2.47
2019-03-03T23:45:04.645Z,2.80
2019-03-03T23:47:35.232Z,3.30
2019-03-03T23:50:06.306Z,2.90
2019-03-03T23:52:45.509Z,2.93
2019-03-03T23:55:15.292Z,3.33
2019-03-03T23:57:47.185Z,2.77
